Madeline, California
Current Conditions -  °F | °C
As of 2:55 AM on Friday 31 Oct 2014 (Local Time) from KAAT Reporting Station
Clear Clear  
Wind Chill: 56°   Ceiling: Unl
Heat Index: 56°   Visibility: 10mi
Dew Point: 33°   Wind: 15mph
Humidity: 42%   Direction: 190°S
Pressure: 29.87"   Gusts: 22mph
Location:  41.05°N, 120.48°W
Report Text: KAAT 310955Z AUTO 19013G19KT 10SM CLR 13/01 A2987 RMK AO2 SLP081 T01330006 $
Loading
Personal Weather Stations






























Interactive Weather Map
Tropical Storm Tracking
New forecast layout! Learn more

10-Day Weather Forecast

Advertisements
Track Severe Weather on mobile